createdAt,value
2023-03-15T00:02:26.271Z,51.23
2023-03-15T00:04:54.946Z,51.14
2023-03-15T00:07:25.846Z,51.09
2023-03-15T00:09:54.807Z,51.14
2023-03-15T00:12:23.463Z,51.16
2023-03-15T00:14:52.010Z,51.45
2023-03-15T00:17:20.120Z,51.74
2023-03-15T00:19:49.992Z,51.74
2023-03-15T00:22:18.098Z,51.95
2023-03-15T00:24:46.332Z,52.26
2023-03-15T00:27:14.446Z,52.42
2023-03-15T00:29:42.534Z,52.43
2023-03-15T00:32:11.161Z,52.56
2023-03-15T00:34:40.815Z,52.65
2023-03-15T00:37:09.058Z,52.80
2023-03-15T00:39:38.733Z,52.84
2023-03-15T00:42:09.835Z,52.81
2023-03-15T00:44:37.994Z,52.92
2023-03-15T00:47:06.225Z,52.96
2023-03-15T00:49:34.341Z,52.82
2023-03-15T00:52:04.961Z,52.97
2023-03-15T00:54:34.197Z,53.04
2023-03-15T00:57:03.235Z,53.13
2023-03-15T00:59:35.165Z,53.26
2023-03-15T01:02:07.272Z,53.30
2023-03-15T01:04:35.464Z,53.46
2023-03-15T01:07:05.447Z,53.93
2023-03-15T01:09:33.587Z,53.81
2023-03-15T01:12:01.750Z,53.63
2023-03-15T01:14:32.285Z,53.62
2023-03-15T01:17:00.377Z,53.74
2023-03-15T01:19:29.852Z,53.86
2023-03-15T01:21:57.953Z,53.88
2023-03-15T01:24:26.095Z,53.94
2023-03-15T01:26:54.178Z,54.15
2023-03-15T01:29:22.407Z,54.41
2023-03-15T01:31:51.159Z,54.56
2023-03-15T01:34:19.421Z,54.68
2023-03-15T01:36:52.586Z,54.88
2023-03-15T01:39:22.232Z,55.06
2023-03-15T01:41:50.329Z,55.04
2023-03-15T01:44:20.281Z,54.88
2023-03-15T01:46:49.366Z,54.80
2023-03-15T01:49:24.483Z,55.19
2023-03-15T01:52:15.829Z,55.29
2023-03-15T01:55:02.820Z,55.33
2023-03-15T01:57:41.261Z,55.47
2023-03-15T02:00:19.874Z,55.65
2023-03-15T02:02:56.556Z,55.71
2023-03-15T02:05:35.681Z,55.58
2023-03-15T02:08:09.017Z,55.95
2023-03-15T02:10:45.446Z,56.05
2023-03-15T02:13:19.399Z,55.94
2023-03-15T02:15:47.587Z,55.83
2023-03-15T02:18:22.559Z,55.73
2023-03-15T02:21:18.160Z,55.84
2023-03-15T02:23:57.574Z,55.86
2023-03-15T02:26:52.992Z,56.01
2023-03-15T02:29:24.813Z,56.16
2023-03-15T02:31:54.954Z,56.39
2023-03-15T02:34:26.427Z,56.54
2023-03-15T02:36:55.703Z,56.52
2023-03-15T02:39:24.530Z,56.61
2023-03-15T02:41:56.850Z,56.67
2023-03-15T02:44:35.349Z,56.72
2023-03-15T02:47:18.990Z,56.96
2023-03-15T02:49:52.673Z,56.91
2023-03-15T02:52:22.513Z,56.90
2023-03-15T02:54:50.787Z,56.89
2023-03-15T02:57:20.681Z,56.89
2023-03-15T02:59:51.057Z,57.06
2023-03-15T03:02:20.029Z,56.86
2023-03-15T03:04:48.251Z,56.97
2023-03-15T03:07:16.582Z,56.65
2023-03-15T03:09:48.493Z,56.90
2023-03-15T03:12:18.234Z,57.00
2023-03-15T03:14:46.399Z,56.96
2023-03-15T03:17:17.959Z,57.25
2023-03-15T03:19:47.129Z,57.18
2023-03-15T03:22:16.023Z,57.25
2023-03-15T03:24:45.972Z,57.22
2023-03-15T03:27:15.738Z,57.11
2023-03-15T03:29:45.223Z,57.18
2023-03-15T03:32:13.398Z,57.19
2023-03-15T03:34:41.522Z,57.09
2023-03-15T03:37:09.912Z,57.23
2023-03-15T03:39:52.231Z,57.34
2023-03-15T03:42:20.371Z,57.31
2023-03-15T03:44:50.428Z,57.34
2023-03-15T03:47:18.667Z,57.29
2023-03-15T03:49:46.778Z,57.24
2023-03-15T03:52:15.058Z,57.26
2023-03-15T03:54:43.304Z,57.04
2023-03-15T03:57:11.708Z,57.02
2023-03-15T03:59:40.383Z,57.46
2023-03-15T04:02:10.285Z,57.17
2023-03-15T04:04:41.826Z,57.04
2023-03-15T04:07:17.021Z,57.00
2023-03-15T04:09:45.662Z,57.19
2023-03-15T04:12:14.315Z,57.70
2023-03-15T04:14:44.075Z,57.45
2023-03-15T04:17:13.238Z,57.33
2023-03-15T04:19:47.036Z,57.56
2023-03-15T04:22:16.884Z,57.65
2023-03-15T04:25:07.921Z,57.83
2023-03-15T04:27:59.762Z,57.67
2023-03-15T04:30:49.246Z,57.99
2023-03-15T04:34:07.182Z,57.93
2023-03-15T04:36:56.783Z,57.80
2023-03-15T04:40:10.052Z,58.19
2023-03-15T04:42:56.901Z,58.20
2023-03-15T04:45:39.732Z,58.19
2023-03-15T04:48:33.324Z,58.28
2023-03-15T04:51:21.826Z,58.67
2023-03-15T04:54:36.556Z,58.57
2023-03-15T04:57:55.482Z,58.06
2023-03-15T05:01:05.242Z,58.60
2023-03-15T05:04:00.244Z,58.65
2023-03-15T05:06:47.138Z,58.53
2023-03-15T05:09:39.779Z,58.76
2023-03-15T05:12:24.502Z,58.75
2023-03-15T05:15:18.762Z,58.81
2023-03-15T05:18:30.946Z,59.09
2023-03-15T05:21:30.328Z,58.60
2023-03-15T05:24:10.262Z,58.83
2023-03-15T05:26:54.254Z,58.91
2023-03-15T05:30:05.658Z,58.88
2023-03-15T05:33:24.691Z,58.85
2023-03-15T05:36:42.930Z,59.01
2023-03-15T05:39:17.501Z,59.18
2023-03-15T05:42:02.118Z,58.83
2023-03-15T05:44:57.555Z,59.05
2023-03-15T05:47:44.154Z,58.92
2023-03-15T05:50:29.644Z,58.79
2023-03-15T05:53:16.143Z,59.02
2023-03-15T05:56:00.047Z,58.73
2023-03-15T05:58:30.939Z,58.60
2023-03-15T06:01:42.972Z,59.19
2023-03-15T06:04:16.740Z,59.47
2023-03-15T06:06:46.056Z,59.31
2023-03-15T06:09:14.252Z,59.31
2023-03-15T06:11:42.514Z,58.98
2023-03-15T06:14:13.054Z,59.40
2023-03-15T06:16:53.214Z,59.15
2023-03-15T06:19:22.445Z,59.00
2023-03-15T06:21:51.410Z,59.33
2023-03-15T06:24:26.666Z,59.24
2023-03-15T06:26:54.908Z,59.14
2023-03-15T06:29:23.971Z,59.07
2023-03-15T06:31:53.613Z,58.87
2023-03-15T06:34:22.374Z,58.81
2023-03-15T06:36:52.551Z,58.81
2023-03-15T06:39:20.687Z,58.49
2023-03-15T06:41:48.832Z,58.34
2023-03-15T06:44:20.593Z,58.24
2023-03-15T06:46:52.741Z,58.26
2023-03-15T06:49:20.962Z,58.17
2023-03-15T06:51:49.076Z,58.00
2023-03-15T06:54:17.365Z,58.10
2023-03-15T06:56:45.578Z,58.09
2023-03-15T06:59:13.942Z,57.93
2023-03-15T07:01:42.205Z,58.05
2023-03-15T07:04:10.423Z,58.00
2023-03-15T07:06:38.652Z,57.90
2023-03-15T07:09:07.388Z,57.99
2023-03-15T07:11:35.498Z,58.03
2023-03-15T07:14:03.642Z,57.64
2023-03-15T07:16:31.755Z,57.75
2023-03-15T07:19:00.169Z,57.77
2023-03-15T07:21:29.031Z,57.56
2023-03-15T07:23:57.159Z,57.34
2023-03-15T07:26:25.322Z,57.45
2023-03-15T07:28:53.442Z,57.18
2023-03-15T07:31:22.292Z,57.05
2023-03-15T07:33:50.579Z,56.93
2023-03-15T07:36:18.694Z,56.88
2023-03-15T07:38:46.797Z,56.78
2023-03-15T07:41:14.908Z,56.73
2023-03-15T07:43:50.313Z,56.56
2023-03-15T07:46:19.278Z,56.38
2023-03-15T07:48:47.582Z,56.36
2023-03-15T07:51:15.877Z,56.09
2023-03-15T07:53:44.012Z,55.85
2023-03-15T07:56:12.155Z,55.92
2023-03-15T07:58:40.264Z,55.75
2023-03-15T08:01:09.264Z,55.64
2023-03-15T08:03:37.680Z,55.54
2023-03-15T08:06:06.111Z,55.44
2023-03-15T08:08:34.263Z,55.20
2023-03-15T08:11:03.019Z,55.20
2023-03-15T08:13:31.112Z,55.07
2023-03-15T08:15:59.404Z,54.95
2023-03-15T08:18:29.105Z,54.88
2023-03-15T08:20:57.573Z,54.84
2023-03-15T08:23:25.773Z,54.78
2023-03-15T08:25:53.877Z,54.68
2023-03-15T08:28:21.984Z,54.56
2023-03-15T08:30:50.083Z,54.60
2023-03-15T08:33:18.258Z,54.46
2023-03-15T08:35:46.390Z,54.36
2023-03-15T08:38:14.538Z,54.27
2023-03-15T08:40:42.767Z,54.22
2023-03-15T08:43:10.947Z,54.09
2023-03-15T08:45:56.705Z,54.09
2023-03-15T08:48:27.267Z,53.64
2023-03-15T08:50:55.450Z,53.43
2023-03-15T08:53:23.608Z,53.46
2023-03-15T08:55:51.716Z,53.28
2023-03-15T08:58:19.805Z,53.26
2023-03-15T09:00:51.502Z,53.14
2023-03-15T09:03:20.324Z,53.13
2023-03-15T09:05:48.947Z,52.98
2023-03-15T09:08:21.132Z,52.98
2023-03-15T09:10:49.428Z,52.89
2023-03-15T09:13:17.549Z,52.64
2023-03-15T09:15:45.692Z,52.62
2023-03-15T09:18:13.804Z,52.55
2023-03-15T09:20:41.931Z,52.51
2023-03-15T09:23:10.446Z,52.57
2023-03-15T09:25:38.652Z,52.36
2023-03-15T09:28:10.597Z,52.26
2023-03-15T09:30:40.849Z,52.18
2023-03-15T09:33:09.680Z,52.18
2023-03-15T09:35:38.127Z,52.00
2023-03-15T09:38:06.254Z,52.08
2023-03-15T09:40:45.658Z,51.99
2023-03-15T09:43:52.627Z,51.96
2023-03-15T09:46:49.763Z,51.55
2023-03-15T09:49:28.480Z,51.56
2023-03-15T09:52:16.464Z,51.19
2023-03-15T09:55:04.781Z,51.13
2023-03-15T09:57:43.424Z,50.97
2023-03-15T10:00:19.445Z,50.94
2023-03-15T10:03:17.860Z,50.89
2023-03-15T10:05:54.342Z,50.94
2023-03-15T10:08:22.544Z,50.85
2023-03-15T10:11:14.753Z,50.91
2023-03-15T10:14:33.820Z,50.92
2023-03-15T10:17:13.131Z,50.90
2023-03-15T10:19:59.054Z,50.80
2023-03-15T10:22:40.957Z,50.53
2023-03-15T10:25:26.217Z,50.51
2023-03-15T10:28:06.188Z,50.57
2023-03-15T10:30:38.729Z,50.52
2023-03-15T10:33:36.350Z,50.22
2023-03-15T10:36:17.093Z,50.17
2023-03-15T10:38:46.405Z,49.75
2023-03-15T10:41:47.058Z,49.61
2023-03-15T10:44:19.625Z,49.44
2023-03-15T10:47:22.994Z,49.13
2023-03-15T10:49:59.586Z,49.23
2023-03-15T10:52:43.397Z,49.36
2023-03-15T10:55:20.204Z,49.22
2023-03-15T10:58:00.101Z,48.93
2023-03-15T11:00:34.372Z,48.74
2023-03-15T11:03:09.557Z,48.81
2023-03-15T11:05:45.914Z,48.56
2023-03-15T11:08:18.504Z,48.46
2023-03-15T11:10:56.249Z,48.47
2023-03-15T11:13:28.215Z,48.31
2023-03-15T11:16:22.174Z,47.85
2023-03-15T11:19:03.819Z,47.54
2023-03-15T11:21:35.699Z,46.71
2023-03-15T11:24:06.845Z,46.11
2023-03-15T11:26:38.733Z,46.21
2023-03-15T11:29:31.729Z,46.29
2023-03-15T11:32:10.795Z,46.12
2023-03-15T11:35:00.219Z,45.30
2023-03-15T11:37:45.805Z,45.25
2023-03-15T11:40:25.087Z,44.97
2023-03-15T11:43:15.849Z,44.87
2023-03-15T11:46:05.798Z,44.78
2023-03-15T11:49:03.343Z,44.72
2023-03-15T11:51:36.614Z,44.76
2023-03-15T11:54:15.538Z,44.82
2023-03-15T11:56:43.638Z,44.59
2023-03-15T11:59:28.539Z,44.51
2023-03-15T12:02:28.819Z,44.63
2023-03-15T12:05:01.775Z,44.55
2023-03-15T12:07:38.033Z,44.50
2023-03-15T12:10:31.482Z,44.48
2023-03-15T12:13:16.455Z,44.29
2023-03-15T12:15:47.117Z,44.10
2023-03-15T12:18:19.977Z,43.88
2023-03-15T12:21:17.377Z,43.89
2023-03-15T12:24:01.777Z,43.85
2023-03-15T12:26:33.549Z,43.94
2023-03-15T12:29:06.605Z,43.70
2023-03-15T12:32:03.984Z,43.47
2023-03-15T12:34:42.642Z,43.88
2023-03-15T12:37:44.104Z,43.53
2023-03-15T12:40:15.158Z,43.38
2023-03-15T12:42:43.225Z,43.18
2023-03-15T12:45:17.921Z,43.15
2023-03-15T12:48:09.928Z,42.99
2023-03-15T12:50:43.982Z,43.02
2023-03-15T12:53:15.489Z,43.04
2023-03-15T12:55:44.206Z,43.03
2023-03-15T12:58:15.872Z,43.02
2023-03-15T13:00:44.973Z,42.98
2023-03-15T13:03:26.828Z,42.79
2023-03-15T13:06:07.068Z,42.96
2023-03-15T13:08:53.975Z,42.65
2023-03-15T13:11:40.573Z,42.63
2023-03-15T13:14:18.795Z,42.50
2023-03-15T13:17:02.047Z,42.41
2023-03-15T13:19:41.899Z,42.26
2023-03-15T13:22:41.303Z,42.45
2023-03-15T13:25:43.125Z,43.01
2023-03-15T13:28:37.145Z,43.06
2023-03-15T13:31:25.988Z,43.14
2023-03-15T13:33:57.602Z,43.48
2023-03-15T13:36:46.898Z,43.53
2023-03-15T13:39:35.379Z,43.70
2023-03-15T13:42:19.703Z,43.82
2023-03-15T13:44:47.841Z,43.78
2023-03-15T13:47:23.933Z,43.83
2023-03-15T13:49:52.812Z,43.97
2023-03-15T13:52:20.985Z,44.03
2023-03-15T13:54:53.763Z,44.11
2023-03-15T13:57:23.776Z,44.08
2023-03-15T14:00:01.027Z,44.26
2023-03-15T14:02:45.862Z,44.57
2023-03-15T14:05:19.964Z,44.86
2023-03-15T14:07:51.187Z,45.04
2023-03-15T14:10:28.058Z,45.50
2023-03-15T14:12:57.985Z,45.89
2023-03-15T14:15:41.549Z,46.13
2023-03-15T14:18:09.649Z,46.53
2023-03-15T14:20:47.470Z,47.15
2023-03-15T14:23:18.844Z,47.46
2023-03-15T14:25:54.371Z,47.71
2023-03-15T14:28:24.569Z,47.94
2023-03-15T14:30:56.971Z,48.33
2023-03-15T14:33:41.332Z,48.78
2023-03-15T14:36:32.214Z,49.62
2023-03-15T14:39:00.644Z,50.23
2023-03-15T14:41:31.331Z,51.51
2023-03-15T14:44:02.967Z,52.59
2023-03-15T14:46:31.926Z,52.37
2023-03-15T14:49:00.944Z,53.10
2023-03-15T14:51:29.682Z,54.22
2023-03-15T14:53:59.600Z,54.01
2023-03-15T14:56:27.806Z,54.81
2023-03-15T14:58:56.027Z,55.08
2023-03-15T15:01:27.315Z,55.42
2023-03-15T15:04:01.590Z,55.36
2023-03-15T15:06:36.570Z,55.84
2023-03-15T15:09:06.972Z,56.15
2023-03-15T15:11:35.200Z,56.34
2023-03-15T15:14:03.382Z,56.54
2023-03-15T15:16:31.504Z,57.47
2023-03-15T15:18:59.681Z,57.77
2023-03-15T15:21:33.852Z,58.15
2023-03-15T15:24:05.456Z,58.24
2023-03-15T15:26:34.524Z,58.59
2023-03-15T15:29:03.137Z,58.84
2023-03-15T15:31:34.476Z,59.15
2023-03-15T15:34:02.926Z,59.14
2023-03-15T15:36:41.509Z,59.73
2023-03-15T15:39:23.314Z,59.80
2023-03-15T15:41:51.614Z,60.11
2023-03-15T15:44:22.624Z,60.48
2023-03-15T15:46:51.032Z,60.43
2023-03-15T15:49:19.861Z,61.12
2023-03-15T15:51:49.881Z,61.25
2023-03-15T15:54:27.644Z,62.11
2023-03-15T15:56:58.552Z,62.19
2023-03-15T15:59:27.293Z,63.00
2023-03-15T16:02:01.167Z,62.81
2023-03-15T16:04:30.992Z,63.50
2023-03-15T16:07:03.900Z,63.49
2023-03-15T16:09:37.757Z,64.10
2023-03-15T16:12:17.833Z,64.23
2023-03-15T16:14:45.951Z,64.68
2023-03-15T16:17:23.845Z,65.31
2023-03-15T16:19:52.869Z,65.24
2023-03-15T16:22:23.774Z,65.51
2023-03-15T16:24:57.343Z,65.34
2023-03-15T16:27:27.212Z,65.64
2023-03-15T16:29:56.024Z,65.63
2023-03-15T16:32:41.084Z,65.76
2023-03-15T16:35:16.482Z,65.73
2023-03-15T16:37:46.427Z,66.20
2023-03-15T16:40:34.363Z,65.98
2023-03-15T16:43:03.058Z,66.31
2023-03-15T16:45:31.180Z,66.14
2023-03-15T16:47:59.319Z,65.91
2023-03-15T16:50:27.917Z,66.00
2023-03-15T16:52:59.648Z,66.03
2023-03-15T16:55:32.988Z,66.21
2023-03-15T16:58:04.498Z,66.00
2023-03-15T17:00:32.644Z,66.13
2023-03-15T17:03:01.713Z,65.87
2023-03-15T17:05:32.660Z,66.07
2023-03-15T17:08:01.001Z,66.13
2023-03-15T17:10:31.890Z,65.92
2023-03-15T17:13:02.181Z,65.90
2023-03-15T17:15:31.993Z,65.73
2023-03-15T17:18:00.763Z,65.85
2023-03-15T17:20:29.821Z,65.87
2023-03-15T17:23:04.338Z,65.98
2023-03-15T17:25:34.383Z,66.54
2023-03-15T17:28:02.863Z,66.31
2023-03-15T17:30:37.174Z,66.33
2023-03-15T17:33:05.861Z,66.22
2023-03-15T17:35:44.235Z,66.20
2023-03-15T17:38:24.286Z,66.33
2023-03-15T17:40:53.607Z,66.31
2023-03-15T17:43:21.836Z,66.26
2023-03-15T17:45:52.357Z,66.29
2023-03-15T17:48:20.815Z,66.43
2023-03-15T17:50:48.975Z,66.50
2023-03-15T17:53:20.152Z,66.53
2023-03-15T17:55:49.188Z,66.50
2023-03-15T17:58:24.048Z,66.60
2023-03-15T18:00:54.832Z,66.66
2023-03-15T18:03:25.012Z,66.56
2023-03-15T18:05:53.337Z,66.34
2023-03-15T18:08:22.327Z,66.46
2023-03-15T18:10:51.948Z,66.37
2023-03-15T18:13:21.921Z,66.29
2023-03-15T18:15:51.411Z,66.21
2023-03-15T18:18:20.526Z,66.19
2023-03-15T18:20:49.641Z,66.28
2023-03-15T18:23:18.564Z,66.35
2023-03-15T18:25:46.672Z,66.20
2023-03-15T18:28:14.807Z,66.10
2023-03-15T18:30:44.259Z,66.20
2023-03-15T18:33:12.531Z,66.09
2023-03-15T18:35:40.660Z,66.32
2023-03-15T18:38:08.823Z,66.36
2023-03-15T18:40:37.402Z,66.65
2023-03-15T18:43:05.796Z,66.49
2023-03-15T18:45:36.511Z,66.58
2023-03-15T18:48:05.414Z,66.57
2023-03-15T18:50:34.814Z,66.68
2023-03-15T18:53:06.161Z,66.50
2023-03-15T18:55:35.250Z,66.41
2023-03-15T18:58:08.903Z,66.40
2023-03-15T19:00:37.807Z,66.41
2023-03-15T19:03:07.165Z,66.44
2023-03-15T19:05:38.279Z,66.31
2023-03-15T19:08:06.666Z,66.42
2023-03-15T19:10:34.952Z,66.32
2023-03-15T19:13:04.666Z,66.34
2023-03-15T19:15:33.435Z,66.41
2023-03-15T19:18:02.031Z,66.33
2023-03-15T19:20:30.357Z,66.46
2023-03-15T19:22:58.492Z,66.42
2023-03-15T19:25:26.691Z,66.31
2023-03-15T19:27:54.808Z,66.51
2023-03-15T19:30:23.368Z,66.46
2023-03-15T19:32:51.536Z,66.56
2023-03-15T19:35:21.610Z,66.57
2023-03-15T19:37:50.033Z,66.80
2023-03-15T19:40:20.037Z,66.64
2023-03-15T19:42:48.748Z,66.61
2023-03-15T19:45:18.219Z,66.73
2023-03-15T19:47:47.162Z,66.70
2023-03-15T19:50:16.226Z,66.98
2023-03-15T19:52:47.553Z,66.93
2023-03-15T19:55:20.721Z,67.03
2023-03-15T19:57:48.775Z,66.99
2023-03-15T20:00:18.989Z,67.01
2023-03-15T20:02:47.910Z,67.07
2023-03-15T20:05:19.479Z,67.15
2023-03-15T20:07:51.723Z,67.14
2023-03-15T20:10:21.085Z,67.03
2023-03-15T20:12:49.515Z,67.03
2023-03-15T20:15:19.316Z,67.06
2023-03-15T20:17:47.909Z,67.18
2023-03-15T20:20:16.398Z,67.14
2023-03-15T20:22:45.629Z,67.06
2023-03-15T20:25:19.353Z,66.90
2023-03-15T20:27:48.068Z,66.92
2023-03-15T20:30:17.764Z,66.95
2023-03-15T20:32:46.008Z,66.96
2023-03-15T20:35:14.269Z,66.92
2023-03-15T20:37:43.113Z,66.93
2023-03-15T20:40:14.664Z,66.91
2023-03-15T20:42:43.254Z,66.96
2023-03-15T20:45:13.833Z,67.20
2023-03-15T20:47:42.324Z,67.24
2023-03-15T20:50:13.096Z,67.26
2023-03-15T20:52:42.735Z,67.40
2023-03-15T20:55:12.398Z,67.52
2023-03-15T20:57:42.722Z,67.48
2023-03-15T21:00:18.616Z,67.80
2023-03-15T21:02:47.909Z,67.55
2023-03-15T21:05:17.578Z,67.58
2023-03-15T21:07:46.545Z,67.73
2023-03-15T21:10:14.890Z,68.29
2023-03-15T21:12:46.512Z,68.15
2023-03-15T21:15:17.807Z,68.28
2023-03-15T21:17:50.449Z,68.33
2023-03-15T21:20:19.176Z,68.10
2023-03-15T21:22:47.300Z,68.25
2023-03-15T21:25:16.899Z,68.35
2023-03-15T21:27:45.843Z,68.28
2023-03-15T21:30:14.186Z,68.34
2023-03-15T21:32:43.017Z,68.75
2023-03-15T21:35:12.147Z,68.84
2023-03-15T21:37:40.455Z,68.85
2023-03-15T21:40:11.942Z,69.03
2023-03-15T21:42:42.718Z,68.93
2023-03-15T21:45:12.384Z,69.16
2023-03-15T21:47:40.665Z,69.48
2023-03-15T21:50:11.651Z,69.08
2023-03-15T21:52:39.860Z,69.26
2023-03-15T21:55:09.013Z,69.51
2023-03-15T21:57:37.359Z,69.19
2023-03-15T22:00:11.802Z,68.93
2023-03-15T22:02:40.059Z,69.34
2023-03-15T22:05:12.064Z,69.20
2023-03-15T22:07:42.036Z,68.99
2023-03-15T22:10:11.247Z,69.38
2023-03-15T22:12:39.434Z,69.39
2023-03-15T22:15:08.519Z,69.57
2023-03-15T22:17:36.825Z,69.39
2023-03-15T22:20:12.881Z,70.19
2023-03-15T22:22:40.985Z,69.76
2023-03-15T22:25:09.750Z,69.78
2023-03-15T22:27:37.908Z,69.59
2023-03-15T22:30:07.360Z,69.81
2023-03-15T22:32:35.540Z,69.98
2023-03-15T22:35:04.081Z,70.18
2023-03-15T22:37:34.797Z,70.56
2023-03-15T22:40:04.915Z,70.14
2023-03-15T22:42:33.089Z,70.26
2023-03-15T22:45:01.492Z,70.92
2023-03-15T22:47:30.435Z,70.58
2023-03-15T22:49:59.807Z,70.54
2023-03-15T22:52:28.380Z,70.92
2023-03-15T22:54:56.517Z,70.53
2023-03-15T22:57:24.627Z,70.51
2023-03-15T22:59:52.750Z,71.20
2023-03-15T23:02:20.866Z,71.18
2023-03-15T23:04:49.074Z,71.19
2023-03-15T23:07:18.031Z,71.43
2023-03-15T23:09:46.228Z,71.29
2023-03-15T23:12:17.987Z,71.51
2023-03-15T23:14:46.973Z,71.56
2023-03-15T23:17:15.292Z,71.46
2023-03-15T23:19:43.662Z,71.61
2023-03-15T23:22:11.934Z,71.82
2023-03-15T23:24:40.368Z,71.52
2023-03-15T23:27:08.682Z,71.69
2023-03-15T23:29:52.859Z,71.74
2023-03-15T23:32:21.494Z,71.83
2023-03-15T23:34:49.740Z,71.45
2023-03-15T23:37:17.836Z,71.71
2023-03-15T23:39:46.240Z,71.79
2023-03-15T23:42:14.444Z,71.58
2023-03-15T23:44:43.423Z,71.62
2023-03-15T23:47:12.418Z,71.71
2023-03-15T23:49:40.519Z,71.51
2023-03-15T23:52:08.686Z,71.67
2023-03-15T23:54:41.250Z,71.51
2023-03-15T23:57:12.813Z,71.56
2023-03-15T23:59:42.094Z,71.77
